<?xml version="1.0" encoding="UTF-8" standalone="no" ?>
<gpx xmlns="http://www.topografix.com/GPX/1/1" creator="CompeGPS" version="1.1" xmlns:xsi="http://www.w3.org/2001/XMLSchema-instance" xsi:schemaLocation="http://www.topografix.com/GPX/1/1 http://www.topografix.com/GPX/1/1/gpx.xsd">
  <metadata>
    <link href="http://www.compegps.com">
      <text>CompeGPS TEAM, SL</text>
    </link>
    <time>2022-01-02T08:37:07Z</time>
    <bounds maxlat="37.238137" maxlon="-3.313301" minlat="37.210841" minlon="-3.333592"/>
  </metadata>
  <trk>
    <name>Cerro_Carcabal</name>
    <trkseg>
      <trkpt lat="37.237872" lon="-3.322641">
        <ele>1525.3</ele>
        <time>2021-12-30T08:04:42Z</time>
      </trkpt>
      <trkpt lat="37.237817" lon="-3.322894">
        <ele>1527.2</ele>
        <time>2021-12-30T08:05:04Z</time>
      </trkpt>
      <trkpt lat="37.237711" lon="-3.323194">
        <ele>1528.2</ele>
        <time>2021-12-30T08:05:29Z</time>
      </trkpt>
      <trkpt lat="37.237631" lon="-3.323427">
        <ele>1529.1</ele>
        <time>2021-12-30T08:05:48Z</time>
      </trkpt>
      <trkpt lat="37.237459" lon="-3.323626">
        <ele>1530.1</ele>
        <time>2021-12-30T08:06:08Z</time>
      </trkpt>
      <trkpt lat="37.237340" lon="-3.323846">
        <ele>1532.5</ele>
        <time>2021-12-30T08:06:27Z</time>
      </trkpt>
      <trkpt lat="37.237235" lon="-3.324044">
        <ele>1533.9</ele>
        <time>2021-12-30T08:06:47Z</time>
      </trkpt>
      <trkpt lat="37.237094" lon="-3.324264">
        <ele>1534.9</ele>
        <time>2021-12-30T08:07:07Z</time>
      </trkpt>
      <trkpt lat="37.236900" lon="-3.324297">
        <ele>1534.9</ele>
        <time>2021-12-30T08:07:33Z</time>
      </trkpt>
      <trkpt lat="37.236709" lon="-3.324438">
        <ele>1535.4</ele>
        <time>2021-12-30T08:07:51Z</time>
      </trkpt>
      <trkpt lat="37.236573" lon="-3.324563">
        <ele>1535.8</ele>
        <time>2021-12-30T08:08:07Z</time>
      </trkpt>
      <trkpt lat="37.236381" lon="-3.324695">
        <ele>1535.8</ele>
        <time>2021-12-30T08:08:25Z</time>
      </trkpt>
      <trkpt lat="37.236182" lon="-3.324748">
        <ele>1536.3</ele>
        <time>2021-12-30T08:08:39Z</time>
      </trkpt>
      <trkpt lat="37.235970" lon="-3.324716">
        <ele>1537.3</ele>
        <time>2021-12-30T08:08:56Z</time>
      </trkpt>
      <trkpt lat="37.235975" lon="-3.324804">
        <ele>1535.4</ele>
        <time>2021-12-30T08:10:39Z</time>
      </trkpt>
      <trkpt lat="37.235937" lon="-3.324991">
        <ele>1530.6</ele>
        <time>2021-12-30T08:11:03Z</time>
      </trkpt>
      <trkpt lat="37.235983" lon="-3.325232">
        <ele>1526.7</ele>
        <time>2021-12-30T08:11:27Z</time>
      </trkpt>
      <trkpt lat="37.235837" lon="-3.325301">
        <ele>1523.3</ele>
        <time>2021-12-30T08:11:55Z</time>
      </trkpt>
      <trkpt lat="37.235673" lon="-3.325115">
        <ele>1522.4</ele>
        <time>2021-12-30T08:12:13Z</time>
      </trkpt>
      <trkpt lat="37.235502" lon="-3.324970">
        <ele>1520.5</ele>
        <time>2021-12-30T08:12:31Z</time>
      </trkpt>
      <trkpt lat="37.235332" lon="-3.324824">
        <ele>1519.5</ele>
        <time>2021-12-30T08:12:48Z</time>
      </trkpt>
      <trkpt lat="37.235169" lon="-3.324627">
        <ele>1517.1</ele>
        <time>2021-12-30T08:13:06Z</time>
      </trkpt>
      <trkpt lat="37.235031" lon="-3.324481">
        <ele>1515.2</ele>
        <time>2021-12-30T08:13:19Z</time>
      </trkpt>
      <trkpt lat="37.234839" lon="-3.324262">
        <ele>1513.3</ele>
        <time>2021-12-30T08:13:39Z</time>
      </trkpt>
      <trkpt lat="37.234659" lon="-3.324117">
        <ele>1509.9</ele>
        <time>2021-12-30T08:13:57Z</time>
      </trkpt>
      <trkpt lat="37.234553" lon="-3.324122">
        <ele>1506.5</ele>
        <time>2021-12-30T08:14:34Z</time>
      </trkpt>
      <trkpt lat="37.234500" lon="-3.324422">
        <ele>1502.2</ele>
        <time>2021-12-30T08:15:03Z</time>
      </trkpt>
      <trkpt lat="37.234505" lon="-3.324665">
        <ele>1499.8</ele>
        <time>2021-12-30T08:15:20Z</time>
      </trkpt>
      <trkpt lat="37.234459" lon="-3.324920">
        <ele>1495.9</ele>
        <time>2021-12-30T08:15:40Z</time>
      </trkpt>
      <trkpt lat="37.234295" lon="-3.325212">
        <ele>1490.7</ele>
        <time>2021-12-30T08:16:06Z</time>
      </trkpt>
      <trkpt lat="37.234174" lon="-3.325541">
        <ele>1488.3</ele>
        <time>2021-12-30T08:16:33Z</time>
      </trkpt>
      <trkpt lat="37.234086" lon="-3.325767">
        <ele>1488.3</ele>
        <time>2021-12-30T08:16:51Z</time>
      </trkpt>
      <trkpt lat="37.233986" lon="-3.325960">
        <ele>1486.3</ele>
        <time>2021-12-30T08:17:13Z</time>
      </trkpt>
      <trkpt lat="37.233907" lon="-3.326144">
        <ele>1482.0</ele>
        <time>2021-12-30T08:17:43Z</time>
      </trkpt>
      <trkpt lat="37.233776" lon="-3.326257">
        <ele>1477.7</ele>
        <time>2021-12-30T08:18:00Z</time>
      </trkpt>
      <trkpt lat="37.233742" lon="-3.326479">
        <ele>1470.0</ele>
        <time>2021-12-30T08:18:19Z</time>
      </trkpt>
      <trkpt lat="37.233637" lon="-3.326664">
        <ele>1469.0</ele>
        <time>2021-12-30T08:18:39Z</time>
      </trkpt>
      <trkpt lat="37.233511" lon="-3.326796">
        <ele>1463.3</ele>
        <time>2021-12-30T08:19:01Z</time>
      </trkpt>
      <trkpt lat="37.233502" lon="-3.327002">
        <ele>1456.1</ele>
        <time>2021-12-30T08:19:42Z</time>
      </trkpt>
      <trkpt lat="37.233490" lon="-3.327237">
        <ele>1456.1</ele>
        <time>2021-12-30T08:20:22Z</time>
      </trkpt>
      <trkpt lat="37.233379" lon="-3.327343">
        <ele>1448.8</ele>
        <time>2021-12-30T08:21:34Z</time>
      </trkpt>
      <trkpt lat="37.233240" lon="-3.327516">
        <ele>1446.0</ele>
        <time>2021-12-30T08:22:02Z</time>
      </trkpt>
      <trkpt lat="37.233084" lon="-3.327439">
        <ele>1439.7</ele>
        <time>2021-12-30T08:22:25Z</time>
      </trkpt>
      <trkpt lat="37.232916" lon="-3.327430">
        <ele>1437.8</ele>
        <time>2021-12-30T08:23:29Z</time>
      </trkpt>
      <trkpt lat="37.232766" lon="-3.327322">
        <ele>1431.5</ele>
        <time>2021-12-30T08:23:48Z</time>
      </trkpt>
      <trkpt lat="37.232622" lon="-3.327034">
        <ele>1428.7</ele>
        <time>2021-12-30T08:24:18Z</time>
      </trkpt>
      <trkpt lat="37.232533" lon="-3.326718">
        <ele>1429.1</ele>
        <time>2021-12-30T08:24:41Z</time>
      </trkpt>
      <trkpt lat="37.232393" lon="-3.326509">
        <ele>1430.6</ele>
        <time>2021-12-30T08:25:03Z</time>
      </trkpt>
      <trkpt lat="37.232306" lon="-3.326222">
        <ele>1432.0</ele>
        <time>2021-12-30T08:25:32Z</time>
      </trkpt>
      <trkpt lat="37.232126" lon="-3.326056">
        <ele>1432.0</ele>
        <time>2021-12-30T08:26:28Z</time>
      </trkpt>
      <trkpt lat="37.232147" lon="-3.326502">
        <ele>1438.3</ele>
        <time>2021-12-30T08:27:46Z</time>
      </trkpt>
      <trkpt lat="37.232155" lon="-3.326925">
        <ele>1446.4</ele>
        <time>2021-12-30T08:28:56Z</time>
      </trkpt>
      <trkpt lat="37.231921" lon="-3.327537">
        <ele>1460.9</ele>
        <time>2021-12-30T08:31:28Z</time>
      </trkpt>
      <trkpt lat="37.231717" lon="-3.327874">
        <ele>1473.4</ele>
        <time>2021-12-30T08:33:00Z</time>
      </trkpt>
      <trkpt lat="37.231590" lon="-3.328021">
        <ele>1474.8</ele>
        <time>2021-12-30T08:35:36Z</time>
      </trkpt>
      <trkpt lat="37.231627" lon="-3.328533">
        <ele>1474.8</ele>
        <time>2021-12-30T08:37:11Z</time>
      </trkpt>
      <trkpt lat="37.231410" lon="-3.329052">
        <ele>1475.8</ele>
        <time>2021-12-30T08:39:42Z</time>
      </trkpt>
      <trkpt lat="37.231152" lon="-3.329555">
        <ele>1475.8</ele>
        <time>2021-12-30T08:41:13Z</time>
      </trkpt>
      <trkpt lat="37.231004" lon="-3.329994">
        <ele>1473.4</ele>
        <time>2021-12-30T08:43:48Z</time>
      </trkpt>
      <trkpt lat="37.230549" lon="-3.330899">
        <ele>1469.5</ele>
        <time>2021-12-30T08:46:05Z</time>
      </trkpt>
      <trkpt lat="37.230390" lon="-3.331251">
        <ele>1470.5</ele>
        <time>2021-12-30T08:47:16Z</time>
      </trkpt>
      <trkpt lat="37.230077" lon="-3.331610">
        <ele>1474.3</ele>
        <time>2021-12-30T08:48:57Z</time>
      </trkpt>
      <trkpt lat="37.229892" lon="-3.331710">
        <ele>1475.3</ele>
        <time>2021-12-30T08:49:54Z</time>
      </trkpt>
      <trkpt lat="37.229708" lon="-3.331775">
        <ele>1481.5</ele>
        <time>2021-12-30T08:51:07Z</time>
      </trkpt>
      <trkpt lat="37.229540" lon="-3.331962">
        <ele>1483.9</ele>
        <time>2021-12-30T08:52:20Z</time>
      </trkpt>
      <trkpt lat="37.229367" lon="-3.332087">
        <ele>1486.3</ele>
        <time>2021-12-30T08:53:20Z</time>
      </trkpt>
      <trkpt lat="37.229171" lon="-3.332271">
        <ele>1487.8</ele>
        <time>2021-12-30T08:54:16Z</time>
      </trkpt>
      <trkpt lat="37.229137" lon="-3.332544">
        <ele>1488.3</ele>
        <time>2021-12-30T08:55:42Z</time>
      </trkpt>
      <trkpt lat="37.228978" lon="-3.332665">
        <ele>1493.5</ele>
        <time>2021-12-30T08:57:01Z</time>
      </trkpt>
      <trkpt lat="37.228786" lon="-3.333010">
        <ele>1495.9</ele>
        <time>2021-12-30T08:58:16Z</time>
      </trkpt>
      <trkpt lat="37.228562" lon="-3.333097">
        <ele>1498.8</ele>
        <time>2021-12-30T08:59:50Z</time>
      </trkpt>
      <trkpt lat="37.228375" lon="-3.333042">
        <ele>1503.6</ele>
        <time>2021-12-30T09:02:11Z</time>
      </trkpt>
      <trkpt lat="37.228176" lon="-3.333195">
        <ele>1505.6</ele>
        <time>2021-12-30T09:03:10Z</time>
      </trkpt>
      <trkpt lat="37.228004" lon="-3.333234">
        <ele>1507.5</ele>
        <time>2021-12-30T09:03:59Z</time>
      </trkpt>
      <trkpt lat="37.227899" lon="-3.332982">
        <ele>1521.4</ele>
        <time>2021-12-30T09:05:31Z</time>
      </trkpt>
      <trkpt lat="37.227625" lon="-3.332839">
        <ele>1526.2</ele>
        <time>2021-12-30T09:06:52Z</time>
      </trkpt>
      <trkpt lat="37.227132" lon="-3.332722">
        <ele>1539.2</ele>
        <time>2021-12-30T09:11:01Z</time>
      </trkpt>
      <trkpt lat="37.226739" lon="-3.332755">
        <ele>1554.6</ele>
        <time>2021-12-30T09:13:41Z</time>
      </trkpt>
      <trkpt lat="37.226365" lon="-3.333574">
        <ele>1562.3</ele>
        <time>2021-12-30T09:16:34Z</time>
      </trkpt>
      <trkpt lat="37.226173" lon="-3.333501">
        <ele>1569.0</ele>
        <time>2021-12-30T09:17:19Z</time>
      </trkpt>
      <trkpt lat="37.226041" lon="-3.333421">
        <ele>1573.3</ele>
        <time>2021-12-30T09:18:03Z</time>
      </trkpt>
      <trkpt lat="37.225920" lon="-3.333339">
        <ele>1575.3</ele>
        <time>2021-12-30T09:21:32Z</time>
      </trkpt>
      <trkpt lat="37.225217" lon="-3.333084">
        <ele>1581.0</ele>
        <time>2021-12-30T09:23:23Z</time>
      </trkpt>
      <trkpt lat="37.224766" lon="-3.332972">
        <ele>1588.7</ele>
        <time>2021-12-30T09:25:07Z</time>
      </trkpt>
      <trkpt lat="37.224269" lon="-3.332916">
        <ele>1600.7</ele>
        <time>2021-12-30T09:27:38Z</time>
      </trkpt>
      <trkpt lat="37.224149" lon="-3.332820">
        <ele>1601.2</ele>
        <time>2021-12-30T09:29:40Z</time>
      </trkpt>
      <trkpt lat="37.223986" lon="-3.332712">
        <ele>1600.7</ele>
        <time>2021-12-30T09:29:58Z</time>
      </trkpt>
      <trkpt lat="37.223822" lon="-3.332703">
        <ele>1600.3</ele>
        <time>2021-12-30T09:30:18Z</time>
      </trkpt>
      <trkpt lat="37.223644" lon="-3.332729">
        <ele>1597.4</ele>
        <time>2021-12-30T09:30:33Z</time>
      </trkpt>
      <trkpt lat="37.223481" lon="-3.332791">
        <ele>1598.8</ele>
        <time>2021-12-30T09:30:52Z</time>
      </trkpt>
      <trkpt lat="37.223348" lon="-3.332946">
        <ele>1600.3</ele>
        <time>2021-12-30T09:31:11Z</time>
      </trkpt>
      <trkpt lat="37.223317" lon="-3.333184">
        <ele>1601.7</ele>
        <time>2021-12-30T09:31:36Z</time>
      </trkpt>
      <trkpt lat="37.223210" lon="-3.333347">
        <ele>1603.6</ele>
        <time>2021-12-30T09:31:57Z</time>
      </trkpt>
      <trkpt lat="37.223045" lon="-3.333395">
        <ele>1602.2</ele>
        <time>2021-12-30T09:32:32Z</time>
      </trkpt>
      <trkpt lat="37.222870" lon="-3.333390">
        <ele>1602.2</ele>
        <time>2021-12-30T09:32:49Z</time>
      </trkpt>
      <trkpt lat="37.222676" lon="-3.333374">
        <ele>1604.6</ele>
        <time>2021-12-30T09:33:07Z</time>
      </trkpt>
      <trkpt lat="37.222501" lon="-3.333322">
        <ele>1605.1</ele>
        <time>2021-12-30T09:33:38Z</time>
      </trkpt>
      <trkpt lat="37.222376" lon="-3.333190">
        <ele>1605.1</ele>
        <time>2021-12-30T09:34:30Z</time>
      </trkpt>
      <trkpt lat="37.222304" lon="-3.333042">
        <ele>1606.5</ele>
        <time>2021-12-30T09:34:55Z</time>
      </trkpt>
      <trkpt lat="37.222135" lon="-3.333068">
        <ele>1607.9</ele>
        <time>2021-12-30T09:35:16Z</time>
      </trkpt>
      <trkpt lat="37.221962" lon="-3.333004">
        <ele>1608.4</ele>
        <time>2021-12-30T09:35:35Z</time>
      </trkpt>
      <trkpt lat="37.221782" lon="-3.332985">
        <ele>1607.9</ele>
        <time>2021-12-30T09:35:54Z</time>
      </trkpt>
      <trkpt lat="37.221646" lon="-3.332797">
        <ele>1611.8</ele>
        <time>2021-12-30T09:36:49Z</time>
      </trkpt>
      <trkpt lat="37.221545" lon="-3.332558">
        <ele>1616.6</ele>
        <time>2021-12-30T09:37:59Z</time>
      </trkpt>
      <trkpt lat="37.221404" lon="-3.332555">
        <ele>1618.0</ele>
        <time>2021-12-30T09:38:31Z</time>
      </trkpt>
      <trkpt lat="37.221255" lon="-3.332684">
        <ele>1617.6</ele>
        <time>2021-12-30T09:40:18Z</time>
      </trkpt>
      <trkpt lat="37.221092" lon="-3.332650">
        <ele>1614.7</ele>
        <time>2021-12-30T09:40:43Z</time>
      </trkpt>
      <trkpt lat="37.220938" lon="-3.332781">
        <ele>1619.0</ele>
        <time>2021-12-30T09:41:06Z</time>
      </trkpt>
      <trkpt lat="37.220773" lon="-3.332801">
        <ele>1621.9</ele>
        <time>2021-12-30T09:41:31Z</time>
      </trkpt>
      <trkpt lat="37.220599" lon="-3.332819">
        <ele>1624.8</ele>
        <time>2021-12-30T09:41:51Z</time>
      </trkpt>
      <trkpt lat="37.220437" lon="-3.332784">
        <ele>1626.7</ele>
        <time>2021-12-30T09:42:09Z</time>
      </trkpt>
      <trkpt lat="37.220261" lon="-3.332755">
        <ele>1626.2</ele>
        <time>2021-12-30T09:42:28Z</time>
      </trkpt>
      <trkpt lat="37.220089" lon="-3.332686">
        <ele>1625.2</ele>
        <time>2021-12-30T09:42:46Z</time>
      </trkpt>
      <trkpt lat="37.219971" lon="-3.332530">
        <ele>1628.1</ele>
        <time>2021-12-30T09:43:21Z</time>
      </trkpt>
      <trkpt lat="37.219809" lon="-3.332501">
        <ele>1628.6</ele>
        <time>2021-12-30T09:43:39Z</time>
      </trkpt>
      <trkpt lat="37.219651" lon="-3.332613">
        <ele>1628.6</ele>
        <time>2021-12-30T09:44:06Z</time>
      </trkpt>
      <trkpt lat="37.219480" lon="-3.332710">
        <ele>1628.6</ele>
        <time>2021-12-30T09:44:26Z</time>
      </trkpt>
      <trkpt lat="37.219063" lon="-3.333124">
        <ele>1631.0</ele>
        <time>2021-12-30T09:45:31Z</time>
      </trkpt>
      <trkpt lat="37.218932" lon="-3.333260">
        <ele>1630.5</ele>
        <time>2021-12-30T09:45:51Z</time>
      </trkpt>
      <trkpt lat="37.218791" lon="-3.333389">
        <ele>1631.5</ele>
        <time>2021-12-30T09:46:12Z</time>
      </trkpt>
      <trkpt lat="37.218749" lon="-3.333440">
        <ele>1631.0</ele>
        <time>2021-12-30T09:48:05Z</time>
      </trkpt>
      <trkpt lat="37.218666" lon="-3.333407">
        <ele>1632.0</ele>
        <time>2021-12-30T09:49:43Z</time>
      </trkpt>
      <trkpt lat="37.218506" lon="-3.333373">
        <ele>1634.4</ele>
        <time>2021-12-30T09:51:08Z</time>
      </trkpt>
      <trkpt lat="37.218323" lon="-3.333303">
        <ele>1636.3</ele>
        <time>2021-12-30T09:51:57Z</time>
      </trkpt>
      <trkpt lat="37.218157" lon="-3.333300">
        <ele>1637.3</ele>
        <time>2021-12-30T09:52:28Z</time>
      </trkpt>
      <trkpt lat="37.217993" lon="-3.333394">
        <ele>1637.3</ele>
        <time>2021-12-30T09:52:54Z</time>
      </trkpt>
      <trkpt lat="37.217832" lon="-3.333498">
        <ele>1638.7</ele>
        <time>2021-12-30T09:53:17Z</time>
      </trkpt>
      <trkpt lat="37.217660" lon="-3.333567">
        <ele>1637.7</ele>
        <time>2021-12-30T09:53:44Z</time>
      </trkpt>
      <trkpt lat="37.217500" lon="-3.333592">
        <ele>1641.1</ele>
        <time>2021-12-30T09:54:08Z</time>
      </trkpt>
      <trkpt lat="37.217343" lon="-3.333543">
        <ele>1644.0</ele>
        <time>2021-12-30T09:54:44Z</time>
      </trkpt>
      <trkpt lat="37.217180" lon="-3.333416">
        <ele>1647.8</ele>
        <time>2021-12-30T09:55:39Z</time>
      </trkpt>
      <trkpt lat="37.216999" lon="-3.333338">
        <ele>1649.3</ele>
        <time>2021-12-30T09:55:59Z</time>
      </trkpt>
      <trkpt lat="37.216835" lon="-3.333285">
        <ele>1649.3</ele>
        <time>2021-12-30T09:57:02Z</time>
      </trkpt>
      <trkpt lat="37.216718" lon="-3.333170">
        <ele>1653.1</ele>
        <time>2021-12-30T09:57:28Z</time>
      </trkpt>
      <trkpt lat="37.216551" lon="-3.333122">
        <ele>1653.6</ele>
        <time>2021-12-30T09:57:54Z</time>
      </trkpt>
      <trkpt lat="37.216403" lon="-3.333122">
        <ele>1656.0</ele>
        <time>2021-12-30T09:58:30Z</time>
      </trkpt>
      <trkpt lat="37.216228" lon="-3.333142">
        <ele>1659.4</ele>
        <time>2021-12-30T09:58:58Z</time>
      </trkpt>
      <trkpt lat="37.216096" lon="-3.333030">
        <ele>1662.7</ele>
        <time>2021-12-30T09:59:30Z</time>
      </trkpt>
      <trkpt lat="37.216027" lon="-3.332864">
        <ele>1667.5</ele>
        <time>2021-12-30T10:00:04Z</time>
      </trkpt>
      <trkpt lat="37.216024" lon="-3.332665">
        <ele>1669.0</ele>
        <time>2021-12-30T10:00:44Z</time>
      </trkpt>
      <trkpt lat="37.215948" lon="-3.332460">
        <ele>1677.2</ele>
        <time>2021-12-30T10:01:19Z</time>
      </trkpt>
      <trkpt lat="37.215780" lon="-3.332330">
        <ele>1679.1</ele>
        <time>2021-12-30T10:01:46Z</time>
      </trkpt>
      <trkpt lat="37.215613" lon="-3.332205">
        <ele>1681.0</ele>
        <time>2021-12-30T10:02:10Z</time>
      </trkpt>
      <trkpt lat="37.215481" lon="-3.332033">
        <ele>1686.3</ele>
        <time>2021-12-30T10:02:37Z</time>
      </trkpt>
      <trkpt lat="37.215362" lon="-3.331847">
        <ele>1687.7</ele>
        <time>2021-12-30T10:03:00Z</time>
      </trkpt>
      <trkpt lat="37.215232" lon="-3.331667">
        <ele>1689.7</ele>
        <time>2021-12-30T10:03:34Z</time>
      </trkpt>
      <trkpt lat="37.215193" lon="-3.331632">
        <ele>1691.1</ele>
        <time>2021-12-30T10:06:06Z</time>
      </trkpt>
      <trkpt lat="37.215031" lon="-3.331578">
        <ele>1693.5</ele>
        <time>2021-12-30T10:06:52Z</time>
      </trkpt>
      <trkpt lat="37.214847" lon="-3.331556">
        <ele>1694.0</ele>
        <time>2021-12-30T10:07:19Z</time>
      </trkpt>
      <trkpt lat="37.214665" lon="-3.331559">
        <ele>1694.9</ele>
        <time>2021-12-30T10:07:46Z</time>
      </trkpt>
      <trkpt lat="37.214489" lon="-3.331451">
        <ele>1696.4</ele>
        <time>2021-12-30T10:08:10Z</time>
      </trkpt>
      <trkpt lat="37.214288" lon="-3.331418">
        <ele>1702.2</ele>
        <time>2021-12-30T10:08:36Z</time>
      </trkpt>
      <trkpt lat="37.214094" lon="-3.331312">
        <ele>1700.2</ele>
        <time>2021-12-30T10:09:17Z</time>
      </trkpt>
      <trkpt lat="37.214089" lon="-3.331077">
        <ele>1708.9</ele>
        <time>2021-12-30T10:09:49Z</time>
      </trkpt>
      <trkpt lat="37.213935" lon="-3.330968">
        <ele>1712.2</ele>
        <time>2021-12-30T10:10:20Z</time>
      </trkpt>
      <trkpt lat="37.213771" lon="-3.331076">
        <ele>1712.7</ele>
        <time>2021-12-30T10:10:41Z</time>
      </trkpt>
      <trkpt lat="37.213601" lon="-3.331160">
        <ele>1716.6</ele>
        <time>2021-12-30T10:11:12Z</time>
      </trkpt>
      <trkpt lat="37.213428" lon="-3.331186">
        <ele>1719.0</ele>
        <time>2021-12-30T10:12:14Z</time>
      </trkpt>
      <trkpt lat="37.213283" lon="-3.331312">
        <ele>1718.5</ele>
        <time>2021-12-30T10:12:40Z</time>
      </trkpt>
      <trkpt lat="37.213117" lon="-3.331348">
        <ele>1721.4</ele>
        <time>2021-12-30T10:13:05Z</time>
      </trkpt>
      <trkpt lat="37.212922" lon="-3.331314">
        <ele>1721.9</ele>
        <time>2021-12-30T10:13:44Z</time>
      </trkpt>
      <trkpt lat="37.212726" lon="-3.331259">
        <ele>1724.3</ele>
        <time>2021-12-30T10:14:17Z</time>
      </trkpt>
      <trkpt lat="37.212593" lon="-3.331187">
        <ele>1733.4</ele>
        <time>2021-12-30T10:14:48Z</time>
      </trkpt>
      <trkpt lat="37.212580" lon="-3.330978">
        <ele>1735.3</ele>
        <time>2021-12-30T10:16:08Z</time>
      </trkpt>
      <trkpt lat="37.212419" lon="-3.330825">
        <ele>1744.9</ele>
        <time>2021-12-30T10:16:55Z</time>
      </trkpt>
      <trkpt lat="37.212264" lon="-3.330692">
        <ele>1753.6</ele>
        <time>2021-12-30T10:17:44Z</time>
      </trkpt>
      <trkpt lat="37.212127" lon="-3.330572">
        <ele>1756.0</ele>
        <time>2021-12-30T10:18:31Z</time>
      </trkpt>
      <trkpt lat="37.211950" lon="-3.330590">
        <ele>1761.8</ele>
        <time>2021-12-30T10:19:05Z</time>
      </trkpt>
      <trkpt lat="37.211777" lon="-3.330685">
        <ele>1762.7</ele>
        <time>2021-12-30T10:19:34Z</time>
      </trkpt>
      <trkpt lat="37.211611" lon="-3.330790">
        <ele>1763.7</ele>
        <time>2021-12-30T10:21:08Z</time>
      </trkpt>
      <trkpt lat="37.211427" lon="-3.330798">
        <ele>1770.9</ele>
        <time>2021-12-30T10:21:34Z</time>
      </trkpt>
      <trkpt lat="37.211278" lon="-3.330757">
        <ele>1772.8</ele>
        <time>2021-12-30T10:22:04Z</time>
      </trkpt>
      <trkpt lat="37.211120" lon="-3.330634">
        <ele>1776.7</ele>
        <time>2021-12-30T10:22:34Z</time>
      </trkpt>
      <trkpt lat="37.210960" lon="-3.330577">
        <ele>1780.5</ele>
        <time>2021-12-30T10:23:16Z</time>
      </trkpt>
      <trkpt lat="37.210841" lon="-3.330457">
        <ele>1781.9</ele>
        <time>2021-12-30T10:23:48Z</time>
      </trkpt>
      <trkpt lat="37.210849" lon="-3.330446">
        <ele>1783.4</ele>
        <time>2021-12-30T10:26:32Z</time>
      </trkpt>
      <trkpt lat="37.211070" lon="-3.329818">
        <ele>1784.8</ele>
        <time>2021-12-30T10:27:42Z</time>
      </trkpt>
      <trkpt lat="37.211206" lon="-3.329420">
        <ele>1791.1</ele>
        <time>2021-12-30T10:28:41Z</time>
      </trkpt>
      <trkpt lat="37.211305" lon="-3.329221">
        <ele>1798.8</ele>
        <time>2021-12-30T10:29:25Z</time>
      </trkpt>
      <trkpt lat="37.211389" lon="-3.329032">
        <ele>1799.2</ele>
        <time>2021-12-30T10:30:16Z</time>
      </trkpt>
      <trkpt lat="37.211458" lon="-3.328839">
        <ele>1802.1</ele>
        <time>2021-12-30T10:30:43Z</time>
      </trkpt>
      <trkpt lat="37.211512" lon="-3.328627">
        <ele>1806.0</ele>
        <time>2021-12-30T10:31:21Z</time>
      </trkpt>
      <trkpt lat="37.211570" lon="-3.328418">
        <ele>1810.8</ele>
        <time>2021-12-30T10:31:51Z</time>
      </trkpt>
      <trkpt lat="37.211622" lon="-3.328204">
        <ele>1819.0</ele>
        <time>2021-12-30T10:32:24Z</time>
      </trkpt>
      <trkpt lat="37.211662" lon="-3.328003">
        <ele>1819.9</ele>
        <time>2021-12-30T10:32:54Z</time>
      </trkpt>
      <trkpt lat="37.211720" lon="-3.327817">
        <ele>1826.2</ele>
        <time>2021-12-30T10:33:27Z</time>
      </trkpt>
      <trkpt lat="37.211661" lon="-3.327596">
        <ele>1827.6</ele>
        <time>2021-12-30T10:33:57Z</time>
      </trkpt>
      <trkpt lat="37.211619" lon="-3.327394">
        <ele>1827.6</ele>
        <time>2021-12-30T10:34:21Z</time>
      </trkpt>
      <trkpt lat="37.211692" lon="-3.327215">
        <ele>1833.9</ele>
        <time>2021-12-30T10:34:56Z</time>
      </trkpt>
      <trkpt lat="37.211775" lon="-3.327042">
        <ele>1838.7</ele>
        <time>2021-12-30T10:35:35Z</time>
      </trkpt>
      <trkpt lat="37.211931" lon="-3.327003">
        <ele>1845.9</ele>
        <time>2021-12-30T10:36:23Z</time>
      </trkpt>
      <trkpt lat="37.212050" lon="-3.326870">
        <ele>1850.7</ele>
        <time>2021-12-30T10:37:07Z</time>
      </trkpt>
      <trkpt lat="37.212198" lon="-3.326806">
        <ele>1855.5</ele>
        <time>2021-12-30T10:37:47Z</time>
      </trkpt>
      <trkpt lat="37.212313" lon="-3.326653">
        <ele>1865.6</ele>
        <time>2021-12-30T10:38:19Z</time>
      </trkpt>
      <trkpt lat="37.212443" lon="-3.326514">
        <ele>1870.4</ele>
        <time>2021-12-30T10:39:07Z</time>
      </trkpt>
      <trkpt lat="37.212535" lon="-3.326346">
        <ele>1875.7</ele>
        <time>2021-12-30T10:39:41Z</time>
      </trkpt>
      <trkpt lat="37.212641" lon="-3.326180">
        <ele>1881.0</ele>
        <time>2021-12-30T10:40:15Z</time>
      </trkpt>
      <trkpt lat="37.212737" lon="-3.326039">
        <ele>1888.2</ele>
        <time>2021-12-30T10:40:44Z</time>
      </trkpt>
      <trkpt lat="37.213019" lon="-3.325502">
        <ele>1892.5</ele>
        <time>2021-12-30T10:42:03Z</time>
      </trkpt>
      <trkpt lat="37.213076" lon="-3.325301">
        <ele>1898.3</ele>
        <time>2021-12-30T10:42:39Z</time>
      </trkpt>
      <trkpt lat="37.213135" lon="-3.324883">
        <ele>1903.1</ele>
        <time>2021-12-30T10:43:33Z</time>
      </trkpt>
      <trkpt lat="37.213167" lon="-3.324704">
        <ele>1909.3</ele>
        <time>2021-12-30T10:44:02Z</time>
      </trkpt>
      <trkpt lat="37.213286" lon="-3.324537">
        <ele>1914.6</ele>
        <time>2021-12-30T10:44:34Z</time>
      </trkpt>
      <trkpt lat="37.213393" lon="-3.323889">
        <ele>1921.8</ele>
        <time>2021-12-30T10:45:34Z</time>
      </trkpt>
      <trkpt lat="37.213467" lon="-3.323688">
        <ele>1925.7</ele>
        <time>2021-12-30T10:45:55Z</time>
      </trkpt>
      <trkpt lat="37.213532" lon="-3.323472">
        <ele>1927.1</ele>
        <time>2021-12-30T10:46:16Z</time>
      </trkpt>
      <trkpt lat="37.213615" lon="-3.323272">
        <ele>1930.5</ele>
        <time>2021-12-30T10:46:39Z</time>
      </trkpt>
      <trkpt lat="37.213737" lon="-3.323119">
        <ele>1933.3</ele>
        <time>2021-12-30T10:47:05Z</time>
      </trkpt>
      <trkpt lat="37.213854" lon="-3.322950">
        <ele>1936.2</ele>
        <time>2021-12-30T10:47:30Z</time>
      </trkpt>
      <trkpt lat="37.213979" lon="-3.322821">
        <ele>1940.1</ele>
        <time>2021-12-30T10:47:57Z</time>
      </trkpt>
      <trkpt lat="37.214013" lon="-3.322610">
        <ele>1943.9</ele>
        <time>2021-12-30T10:48:29Z</time>
      </trkpt>
      <trkpt lat="37.214130" lon="-3.322460">
        <ele>1951.1</ele>
        <time>2021-12-30T10:49:00Z</time>
      </trkpt>
      <trkpt lat="37.214279" lon="-3.322033">
        <ele>1955.5</ele>
        <time>2021-12-30T10:49:45Z</time>
      </trkpt>
      <trkpt lat="37.214407" lon="-3.321866">
        <ele>1955.5</ele>
        <time>2021-12-30T10:50:07Z</time>
      </trkpt>
      <trkpt lat="37.214415" lon="-3.321876">
        <ele>1958.8</ele>
        <time>2021-12-30T10:51:29Z</time>
      </trkpt>
      <trkpt lat="37.214355" lon="-3.321720">
        <ele>1956.9</ele>
        <time>2021-12-30T10:52:50Z</time>
      </trkpt>
      <trkpt lat="37.214376" lon="-3.321650">
        <ele>1955.0</ele>
        <time>2021-12-30T10:53:27Z</time>
      </trkpt>
      <trkpt lat="37.214408" lon="-3.321845">
        <ele>1956.9</ele>
        <time>2021-12-30T10:53:47Z</time>
      </trkpt>
      <trkpt lat="37.214430" lon="-3.321878">
        <ele>1956.4</ele>
        <time>2021-12-30T10:56:18Z</time>
      </trkpt>
      <trkpt lat="37.214428" lon="-3.321879">
        <ele>1959.8</ele>
        <time>2021-12-30T10:59:48Z</time>
      </trkpt>
      <trkpt lat="37.214438" lon="-3.321876">
        <ele>1959.8</ele>
        <time>2021-12-30T11:05:10Z</time>
      </trkpt>
      <trkpt lat="37.214392" lon="-3.321870">
        <ele>1958.8</ele>
        <time>2021-12-30T11:07:32Z</time>
      </trkpt>
      <trkpt lat="37.214407" lon="-3.321842">
        <ele>1961.2</ele>
        <time>2021-12-30T11:10:09Z</time>
      </trkpt>
      <trkpt lat="37.214395" lon="-3.321883">
        <ele>1961.7</ele>
        <time>2021-12-30T11:13:35Z</time>
      </trkpt>
      <trkpt lat="37.214423" lon="-3.321844">
        <ele>1959.8</ele>
        <time>2021-12-30T11:17:06Z</time>
      </trkpt>
      <trkpt lat="37.214338" lon="-3.321853">
        <ele>1960.3</ele>
        <time>2021-12-30T11:19:38Z</time>
      </trkpt>
      <trkpt lat="37.214263" lon="-3.321850">
        <ele>1960.7</ele>
        <time>2021-12-30T11:24:54Z</time>
      </trkpt>
      <trkpt lat="37.214404" lon="-3.321867">
        <ele>1963.6</ele>
        <time>2021-12-30T11:26:19Z</time>
      </trkpt>
      <trkpt lat="37.214363" lon="-3.321756">
        <ele>1963.6</ele>
        <time>2021-12-30T11:29:09Z</time>
      </trkpt>
      <trkpt lat="37.215467" lon="-3.320141">
        <ele>1952.1</ele>
        <time>2021-12-30T11:33:13Z</time>
      </trkpt>
      <trkpt lat="37.215572" lon="-3.319999">
        <ele>1950.7</ele>
        <time>2021-12-30T11:33:50Z</time>
      </trkpt>
      <trkpt lat="37.215676" lon="-3.319897">
        <ele>1948.7</ele>
        <time>2021-12-30T11:34:35Z</time>
      </trkpt>
      <trkpt lat="37.215695" lon="-3.319729">
        <ele>1942.0</ele>
        <time>2021-12-30T11:35:27Z</time>
      </trkpt>
      <trkpt lat="37.215688" lon="-3.319586">
        <ele>1938.6</ele>
        <time>2021-12-30T11:36:00Z</time>
      </trkpt>
      <trkpt lat="37.215764" lon="-3.319541">
        <ele>1932.9</ele>
        <time>2021-12-30T11:37:43Z</time>
      </trkpt>
      <trkpt lat="37.215798" lon="-3.319335">
        <ele>1928.1</ele>
        <time>2021-12-30T11:38:18Z</time>
      </trkpt>
      <trkpt lat="37.215876" lon="-3.319145">
        <ele>1928.5</ele>
        <time>2021-12-30T11:38:48Z</time>
      </trkpt>
      <trkpt lat="37.216177" lon="-3.318564">
        <ele>1933.3</ele>
        <time>2021-12-30T11:39:53Z</time>
      </trkpt>
      <trkpt lat="37.216321" lon="-3.318467">
        <ele>1930.0</ele>
        <time>2021-12-30T11:40:18Z</time>
      </trkpt>
      <trkpt lat="37.216500" lon="-3.318395">
        <ele>1929.5</ele>
        <time>2021-12-30T11:40:42Z</time>
      </trkpt>
      <trkpt lat="37.216670" lon="-3.318304">
        <ele>1926.6</ele>
        <time>2021-12-30T11:41:09Z</time>
      </trkpt>
      <trkpt lat="37.216772" lon="-3.318120">
        <ele>1921.3</ele>
        <time>2021-12-30T11:41:36Z</time>
      </trkpt>
      <trkpt lat="37.216875" lon="-3.317929">
        <ele>1919.4</ele>
        <time>2021-12-30T11:41:57Z</time>
      </trkpt>
      <trkpt lat="37.216981" lon="-3.317727">
        <ele>1918.0</ele>
        <time>2021-12-30T11:42:18Z</time>
      </trkpt>
      <trkpt lat="37.217120" lon="-3.317641">
        <ele>1914.1</ele>
        <time>2021-12-30T11:42:47Z</time>
      </trkpt>
      <trkpt lat="37.217306" lon="-3.317623">
        <ele>1911.7</ele>
        <time>2021-12-30T11:43:10Z</time>
      </trkpt>
      <trkpt lat="37.217450" lon="-3.317478">
        <ele>1909.8</ele>
        <time>2021-12-30T11:43:33Z</time>
      </trkpt>
      <trkpt lat="37.217620" lon="-3.317419">
        <ele>1908.4</ele>
        <time>2021-12-30T11:43:58Z</time>
      </trkpt>
      <trkpt lat="37.217787" lon="-3.317339">
        <ele>1909.8</ele>
        <time>2021-12-30T11:44:20Z</time>
      </trkpt>
      <trkpt lat="37.217907" lon="-3.317173">
        <ele>1908.4</ele>
        <time>2021-12-30T11:44:37Z</time>
      </trkpt>
      <trkpt lat="37.218035" lon="-3.316985">
        <ele>1906.9</ele>
        <time>2021-12-30T11:45:01Z</time>
      </trkpt>
      <trkpt lat="37.218140" lon="-3.316882">
        <ele>1907.4</ele>
        <time>2021-12-30T11:46:05Z</time>
      </trkpt>
      <trkpt lat="37.218281" lon="-3.316948">
        <ele>1903.5</ele>
        <time>2021-12-30T11:46:28Z</time>
      </trkpt>
      <trkpt lat="37.218436" lon="-3.317077">
        <ele>1898.7</ele>
        <time>2021-12-30T11:46:53Z</time>
      </trkpt>
      <trkpt lat="37.218590" lon="-3.317215">
        <ele>1894.9</ele>
        <time>2021-12-30T11:47:17Z</time>
      </trkpt>
      <trkpt lat="37.218735" lon="-3.317336">
        <ele>1893.0</ele>
        <time>2021-12-30T11:47:39Z</time>
      </trkpt>
      <trkpt lat="37.218807" lon="-3.317568">
        <ele>1890.6</ele>
        <time>2021-12-30T11:47:59Z</time>
      </trkpt>
      <trkpt lat="37.218842" lon="-3.317809">
        <ele>1891.5</ele>
        <time>2021-12-30T11:48:21Z</time>
      </trkpt>
      <trkpt lat="37.218877" lon="-3.318057">
        <ele>1888.2</ele>
        <time>2021-12-30T11:48:39Z</time>
      </trkpt>
      <trkpt lat="37.219028" lon="-3.318181">
        <ele>1889.6</ele>
        <time>2021-12-30T11:48:55Z</time>
      </trkpt>
      <trkpt lat="37.219224" lon="-3.318272">
        <ele>1890.6</ele>
        <time>2021-12-30T11:49:15Z</time>
      </trkpt>
      <trkpt lat="37.219389" lon="-3.318404">
        <ele>1892.0</ele>
        <time>2021-12-30T11:49:33Z</time>
      </trkpt>
      <trkpt lat="37.219544" lon="-3.318534">
        <ele>1890.6</ele>
        <time>2021-12-30T11:49:51Z</time>
      </trkpt>
      <trkpt lat="37.220248" lon="-3.318919">
        <ele>1887.2</ele>
        <time>2021-12-30T11:50:58Z</time>
      </trkpt>
      <trkpt lat="37.220515" lon="-3.319200">
        <ele>1882.9</ele>
        <time>2021-12-30T11:52:02Z</time>
      </trkpt>
      <trkpt lat="37.220671" lon="-3.319360">
        <ele>1883.4</ele>
        <time>2021-12-30T11:52:26Z</time>
      </trkpt>
      <trkpt lat="37.220673" lon="-3.319413">
        <ele>1881.4</ele>
        <time>2021-12-30T11:55:11Z</time>
      </trkpt>
      <trkpt lat="37.220662" lon="-3.319692">
        <ele>1872.8</ele>
        <time>2021-12-30T11:55:58Z</time>
      </trkpt>
      <trkpt lat="37.220566" lon="-3.319885">
        <ele>1870.9</ele>
        <time>2021-12-30T11:56:27Z</time>
      </trkpt>
      <trkpt lat="37.220508" lon="-3.320097">
        <ele>1867.0</ele>
        <time>2021-12-30T11:56:55Z</time>
      </trkpt>
      <trkpt lat="37.220431" lon="-3.320309">
        <ele>1861.7</ele>
        <time>2021-12-30T11:57:20Z</time>
      </trkpt>
      <trkpt lat="37.220350" lon="-3.320521">
        <ele>1861.7</ele>
        <time>2021-12-30T11:57:41Z</time>
      </trkpt>
      <trkpt lat="37.220315" lon="-3.320746">
        <ele>1859.8</ele>
        <time>2021-12-30T11:58:01Z</time>
      </trkpt>
      <trkpt lat="37.220294" lon="-3.320976">
        <ele>1857.4</ele>
        <time>2021-12-30T11:58:28Z</time>
      </trkpt>
      <trkpt lat="37.220244" lon="-3.321193">
        <ele>1851.2</ele>
        <time>2021-12-30T11:59:00Z</time>
      </trkpt>
      <trkpt lat="37.220199" lon="-3.321405">
        <ele>1849.7</ele>
        <time>2021-12-30T11:59:22Z</time>
      </trkpt>
      <trkpt lat="37.220110" lon="-3.321619">
        <ele>1849.2</ele>
        <time>2021-12-30T11:59:50Z</time>
      </trkpt>
      <trkpt lat="37.220128" lon="-3.321813">
        <ele>1844.9</ele>
        <time>2021-12-30T12:00:16Z</time>
      </trkpt>
      <trkpt lat="37.220207" lon="-3.322069">
        <ele>1845.4</ele>
        <time>2021-12-30T12:00:47Z</time>
      </trkpt>
      <trkpt lat="37.220292" lon="-3.322301">
        <ele>1845.9</ele>
        <time>2021-12-30T12:01:17Z</time>
      </trkpt>
      <trkpt lat="37.220409" lon="-3.322468">
        <ele>1845.4</ele>
        <time>2021-12-30T12:01:46Z</time>
      </trkpt>
      <trkpt lat="37.220520" lon="-3.322649">
        <ele>1843.0</ele>
        <time>2021-12-30T12:02:17Z</time>
      </trkpt>
      <trkpt lat="37.220626" lon="-3.322841">
        <ele>1842.0</ele>
        <time>2021-12-30T12:02:38Z</time>
      </trkpt>
      <trkpt lat="37.220754" lon="-3.323026">
        <ele>1839.1</ele>
        <time>2021-12-30T12:02:59Z</time>
      </trkpt>
      <trkpt lat="37.220876" lon="-3.323220">
        <ele>1837.7</ele>
        <time>2021-12-30T12:03:22Z</time>
      </trkpt>
      <trkpt lat="37.221402" lon="-3.323472">
        <ele>1833.4</ele>
        <time>2021-12-30T12:04:31Z</time>
      </trkpt>
      <trkpt lat="37.221822" lon="-3.323932">
        <ele>1832.9</ele>
        <time>2021-12-30T12:05:42Z</time>
      </trkpt>
      <trkpt lat="37.221923" lon="-3.324125">
        <ele>1832.9</ele>
        <time>2021-12-30T12:06:10Z</time>
      </trkpt>
      <trkpt lat="37.222011" lon="-3.324326">
        <ele>1833.4</ele>
        <time>2021-12-30T12:06:36Z</time>
      </trkpt>
      <trkpt lat="37.222112" lon="-3.324321">
        <ele>1829.5</ele>
        <time>2021-12-30T12:07:41Z</time>
      </trkpt>
      <trkpt lat="37.222027" lon="-3.324486">
        <ele>1820.9</ele>
        <time>2021-12-30T12:08:14Z</time>
      </trkpt>
      <trkpt lat="37.222034" lon="-3.324636">
        <ele>1819.0</ele>
        <time>2021-12-30T12:09:02Z</time>
      </trkpt>
      <trkpt lat="37.222145" lon="-3.324819">
        <ele>1813.2</ele>
        <time>2021-12-30T12:09:34Z</time>
      </trkpt>
      <trkpt lat="37.222275" lon="-3.324927">
        <ele>1808.4</ele>
        <time>2021-12-30T12:10:28Z</time>
      </trkpt>
      <trkpt lat="37.222311" lon="-3.325128">
        <ele>1800.7</ele>
        <time>2021-12-30T12:11:01Z</time>
      </trkpt>
      <trkpt lat="37.222390" lon="-3.325343">
        <ele>1793.0</ele>
        <time>2021-12-30T12:11:34Z</time>
      </trkpt>
      <trkpt lat="37.222430" lon="-3.325594">
        <ele>1789.2</ele>
        <time>2021-12-30T12:12:30Z</time>
      </trkpt>
      <trkpt lat="37.222519" lon="-3.325794">
        <ele>1781.5</ele>
        <time>2021-12-30T12:12:56Z</time>
      </trkpt>
      <trkpt lat="37.222638" lon="-3.325987">
        <ele>1775.2</ele>
        <time>2021-12-30T12:13:17Z</time>
      </trkpt>
      <trkpt lat="37.222735" lon="-3.326421">
        <ele>1766.6</ele>
        <time>2021-12-30T12:14:26Z</time>
      </trkpt>
      <trkpt lat="37.222825" lon="-3.326623">
        <ele>1763.2</ele>
        <time>2021-12-30T12:14:47Z</time>
      </trkpt>
      <trkpt lat="37.222945" lon="-3.326763">
        <ele>1756.0</ele>
        <time>2021-12-30T12:15:15Z</time>
      </trkpt>
      <trkpt lat="37.222958" lon="-3.326975">
        <ele>1749.7</ele>
        <time>2021-12-30T12:15:42Z</time>
      </trkpt>
      <trkpt lat="37.222971" lon="-3.327200">
        <ele>1745.4</ele>
        <time>2021-12-30T12:16:03Z</time>
      </trkpt>
      <trkpt lat="37.223032" lon="-3.327427">
        <ele>1745.9</ele>
        <time>2021-12-30T12:16:24Z</time>
      </trkpt>
      <trkpt lat="37.223104" lon="-3.327497">
        <ele>1742.0</ele>
        <time>2021-12-30T12:18:37Z</time>
      </trkpt>
      <trkpt lat="37.223219" lon="-3.327635">
        <ele>1732.9</ele>
        <time>2021-12-30T12:19:38Z</time>
      </trkpt>
      <trkpt lat="37.223361" lon="-3.327687">
        <ele>1728.1</ele>
        <time>2021-12-30T12:20:19Z</time>
      </trkpt>
      <trkpt lat="37.223734" lon="-3.327645">
        <ele>1715.6</ele>
        <time>2021-12-30T12:21:07Z</time>
      </trkpt>
      <trkpt lat="37.223920" lon="-3.327634">
        <ele>1712.7</ele>
        <time>2021-12-30T12:21:33Z</time>
      </trkpt>
      <trkpt lat="37.224091" lon="-3.327649">
        <ele>1707.9</ele>
        <time>2021-12-30T12:22:07Z</time>
      </trkpt>
      <trkpt lat="37.224249" lon="-3.327569">
        <ele>1704.1</ele>
        <time>2021-12-30T12:22:30Z</time>
      </trkpt>
      <trkpt lat="37.224396" lon="-3.327550">
        <ele>1694.9</ele>
        <time>2021-12-30T12:23:03Z</time>
      </trkpt>
      <trkpt lat="37.224548" lon="-3.327461">
        <ele>1688.2</ele>
        <time>2021-12-30T12:23:46Z</time>
      </trkpt>
      <trkpt lat="37.224624" lon="-3.327312">
        <ele>1685.8</ele>
        <time>2021-12-30T12:24:20Z</time>
      </trkpt>
      <trkpt lat="37.224727" lon="-3.327117">
        <ele>1682.4</ele>
        <time>2021-12-30T12:24:42Z</time>
      </trkpt>
      <trkpt lat="37.224863" lon="-3.326925">
        <ele>1677.2</ele>
        <time>2021-12-30T12:25:12Z</time>
      </trkpt>
      <trkpt lat="37.224911" lon="-3.326706">
        <ele>1676.2</ele>
        <time>2021-12-30T12:25:38Z</time>
      </trkpt>
      <trkpt lat="37.225020" lon="-3.326556">
        <ele>1671.4</ele>
        <time>2021-12-30T12:26:19Z</time>
      </trkpt>
      <trkpt lat="37.225204" lon="-3.326579">
        <ele>1663.7</ele>
        <time>2021-12-30T12:26:49Z</time>
      </trkpt>
      <trkpt lat="37.225466" lon="-3.326706">
        <ele>1655.5</ele>
        <time>2021-12-30T12:27:36Z</time>
      </trkpt>
      <trkpt lat="37.225773" lon="-3.326884">
        <ele>1645.0</ele>
        <time>2021-12-30T12:28:42Z</time>
      </trkpt>
      <trkpt lat="37.225941" lon="-3.327112">
        <ele>1635.3</ele>
        <time>2021-12-30T12:29:43Z</time>
      </trkpt>
      <trkpt lat="37.226130" lon="-3.327379">
        <ele>1627.2</ele>
        <time>2021-12-30T12:30:32Z</time>
      </trkpt>
      <trkpt lat="37.226393" lon="-3.327551">
        <ele>1617.6</ele>
        <time>2021-12-30T12:31:12Z</time>
      </trkpt>
      <trkpt lat="37.226618" lon="-3.327655">
        <ele>1611.8</ele>
        <time>2021-12-30T12:31:44Z</time>
      </trkpt>
      <trkpt lat="37.226765" lon="-3.327519">
        <ele>1607.9</ele>
        <time>2021-12-30T12:32:11Z</time>
      </trkpt>
      <trkpt lat="37.226874" lon="-3.327377">
        <ele>1604.6</ele>
        <time>2021-12-30T12:32:47Z</time>
      </trkpt>
      <trkpt lat="37.227020" lon="-3.327205">
        <ele>1596.9</ele>
        <time>2021-12-30T12:33:51Z</time>
      </trkpt>
      <trkpt lat="37.227199" lon="-3.327239">
        <ele>1587.3</ele>
        <time>2021-12-30T12:34:40Z</time>
      </trkpt>
      <trkpt lat="37.227322" lon="-3.327185">
        <ele>1585.4</ele>
        <time>2021-12-30T12:35:29Z</time>
      </trkpt>
      <trkpt lat="37.227412" lon="-3.327224">
        <ele>1578.6</ele>
        <time>2021-12-30T12:37:10Z</time>
      </trkpt>
      <trkpt lat="37.227571" lon="-3.327074">
        <ele>1573.8</ele>
        <time>2021-12-30T12:37:55Z</time>
      </trkpt>
      <trkpt lat="37.227563" lon="-3.326986">
        <ele>1572.9</ele>
        <time>2021-12-30T12:40:59Z</time>
      </trkpt>
      <trkpt lat="37.227638" lon="-3.326740">
        <ele>1571.9</ele>
        <time>2021-12-30T12:41:17Z</time>
      </trkpt>
      <trkpt lat="37.227649" lon="-3.326442">
        <ele>1571.9</ele>
        <time>2021-12-30T12:41:36Z</time>
      </trkpt>
      <trkpt lat="37.227619" lon="-3.326184">
        <ele>1570.9</ele>
        <time>2021-12-30T12:41:51Z</time>
      </trkpt>
      <trkpt lat="37.227591" lon="-3.325938">
        <ele>1568.5</ele>
        <time>2021-12-30T12:44:10Z</time>
      </trkpt>
      <trkpt lat="37.227651" lon="-3.325412">
        <ele>1566.6</ele>
        <time>2021-12-30T12:44:48Z</time>
      </trkpt>
      <trkpt lat="37.227511" lon="-3.325130">
        <ele>1565.6</ele>
        <time>2021-12-30T12:45:09Z</time>
      </trkpt>
      <trkpt lat="37.227459" lon="-3.324868">
        <ele>1565.6</ele>
        <time>2021-12-30T12:45:29Z</time>
      </trkpt>
      <trkpt lat="37.227572" lon="-3.324604">
        <ele>1565.2</ele>
        <time>2021-12-30T12:45:46Z</time>
      </trkpt>
      <trkpt lat="37.227619" lon="-3.324392">
        <ele>1565.6</ele>
        <time>2021-12-30T12:46:03Z</time>
      </trkpt>
      <trkpt lat="37.227480" lon="-3.324211">
        <ele>1566.1</ele>
        <time>2021-12-30T12:46:19Z</time>
      </trkpt>
      <trkpt lat="37.227343" lon="-3.324052">
        <ele>1566.1</ele>
        <time>2021-12-30T12:47:01Z</time>
      </trkpt>
      <trkpt lat="37.227237" lon="-3.323846">
        <ele>1567.1</ele>
        <time>2021-12-30T12:47:25Z</time>
      </trkpt>
      <trkpt lat="37.227067" lon="-3.323602">
        <ele>1568.5</ele>
        <time>2021-12-30T12:48:06Z</time>
      </trkpt>
      <trkpt lat="37.226593" lon="-3.323330">
        <ele>1568.5</ele>
        <time>2021-12-30T12:49:10Z</time>
      </trkpt>
      <trkpt lat="37.226448" lon="-3.323174">
        <ele>1568.0</ele>
        <time>2021-12-30T12:49:45Z</time>
      </trkpt>
      <trkpt lat="37.226778" lon="-3.323384">
        <ele>1569.5</ele>
        <time>2021-12-30T12:50:16Z</time>
      </trkpt>
      <trkpt lat="37.227020" lon="-3.323197">
        <ele>1569.5</ele>
        <time>2021-12-30T12:50:40Z</time>
      </trkpt>
      <trkpt lat="37.227135" lon="-3.322949">
        <ele>1570.0</ele>
        <time>2021-12-30T12:51:04Z</time>
      </trkpt>
      <trkpt lat="37.227414" lon="-3.323007">
        <ele>1570.9</ele>
        <time>2021-12-30T12:51:31Z</time>
      </trkpt>
      <trkpt lat="37.227591" lon="-3.322859">
        <ele>1570.9</ele>
        <time>2021-12-30T12:51:51Z</time>
      </trkpt>
      <trkpt lat="37.227682" lon="-3.322630">
        <ele>1571.9</ele>
        <time>2021-12-30T12:52:35Z</time>
      </trkpt>
      <trkpt lat="37.227635" lon="-3.322566">
        <ele>1576.7</ele>
        <time>2021-12-30T12:53:16Z</time>
      </trkpt>
      <trkpt lat="37.227685" lon="-3.322504">
        <ele>1572.4</ele>
        <time>2021-12-30T12:54:56Z</time>
      </trkpt>
      <trkpt lat="37.227701" lon="-3.322503">
        <ele>1571.9</ele>
        <time>2021-12-30T12:55:47Z</time>
      </trkpt>
      <trkpt lat="37.227784" lon="-3.322282">
        <ele>1572.4</ele>
        <time>2021-12-30T12:56:11Z</time>
      </trkpt>
      <trkpt lat="37.227842" lon="-3.322044">
        <ele>1571.9</ele>
        <time>2021-12-30T12:56:33Z</time>
      </trkpt>
      <trkpt lat="37.227894" lon="-3.321732">
        <ele>1574.3</ele>
        <time>2021-12-30T12:56:55Z</time>
      </trkpt>
      <trkpt lat="37.227948" lon="-3.321408">
        <ele>1575.3</ele>
        <time>2021-12-30T12:57:19Z</time>
      </trkpt>
      <trkpt lat="37.227969" lon="-3.321050">
        <ele>1576.7</ele>
        <time>2021-12-30T12:57:42Z</time>
      </trkpt>
      <trkpt lat="37.227962" lon="-3.320705">
        <ele>1578.1</ele>
        <time>2021-12-30T12:58:05Z</time>
      </trkpt>
      <trkpt lat="37.228159" lon="-3.320497">
        <ele>1578.6</ele>
        <time>2021-12-30T12:58:29Z</time>
      </trkpt>
      <trkpt lat="37.228318" lon="-3.320234">
        <ele>1579.6</ele>
        <time>2021-12-30T12:58:51Z</time>
      </trkpt>
      <trkpt lat="37.228387" lon="-3.319905">
        <ele>1581.0</ele>
        <time>2021-12-30T12:59:12Z</time>
      </trkpt>
      <trkpt lat="37.228481" lon="-3.319648">
        <ele>1581.5</ele>
        <time>2021-12-30T12:59:34Z</time>
      </trkpt>
      <trkpt lat="37.228610" lon="-3.319374">
        <ele>1583.4</ele>
        <time>2021-12-30T12:59:55Z</time>
      </trkpt>
      <trkpt lat="37.228753" lon="-3.319054">
        <ele>1584.4</ele>
        <time>2021-12-30T13:00:17Z</time>
      </trkpt>
      <trkpt lat="37.228899" lon="-3.318690">
        <ele>1586.3</ele>
        <time>2021-12-30T13:00:40Z</time>
      </trkpt>
      <trkpt lat="37.229012" lon="-3.318414">
        <ele>1583.9</ele>
        <time>2021-12-30T13:00:58Z</time>
      </trkpt>
      <trkpt lat="37.228915" lon="-3.318152">
        <ele>1580.5</ele>
        <time>2021-12-30T13:01:18Z</time>
      </trkpt>
      <trkpt lat="37.228752" lon="-3.317874">
        <ele>1577.2</ele>
        <time>2021-12-30T13:01:40Z</time>
      </trkpt>
      <trkpt lat="37.228612" lon="-3.317621">
        <ele>1574.8</ele>
        <time>2021-12-30T13:01:55Z</time>
      </trkpt>
      <trkpt lat="37.228480" lon="-3.317460">
        <ele>1573.8</ele>
        <time>2021-12-30T13:02:10Z</time>
      </trkpt>
      <trkpt lat="37.228442" lon="-3.317237">
        <ele>1572.9</ele>
        <time>2021-12-30T13:02:25Z</time>
      </trkpt>
      <trkpt lat="37.228468" lon="-3.316994">
        <ele>1571.9</ele>
        <time>2021-12-30T13:02:40Z</time>
      </trkpt>
      <trkpt lat="37.228473" lon="-3.316752">
        <ele>1572.9</ele>
        <time>2021-12-30T13:02:55Z</time>
      </trkpt>
      <trkpt lat="37.228485" lon="-3.316505">
        <ele>1573.3</ele>
        <time>2021-12-30T13:03:12Z</time>
      </trkpt>
      <trkpt lat="37.228520" lon="-3.316255">
        <ele>1573.3</ele>
        <time>2021-12-30T13:03:30Z</time>
      </trkpt>
      <trkpt lat="37.228368" lon="-3.316081">
        <ele>1572.4</ele>
        <time>2021-12-30T13:03:47Z</time>
      </trkpt>
      <trkpt lat="37.228288" lon="-3.316001">
        <ele>1572.4</ele>
        <time>2021-12-30T13:04:56Z</time>
      </trkpt>
      <trkpt lat="37.228131" lon="-3.316065">
        <ele>1571.4</ele>
        <time>2021-12-30T13:06:36Z</time>
      </trkpt>
      <trkpt lat="37.228216" lon="-3.316096">
        <ele>1570.5</ele>
        <time>2021-12-30T13:08:22Z</time>
      </trkpt>
      <trkpt lat="37.228330" lon="-3.316021">
        <ele>1570.9</ele>
        <time>2021-12-30T13:09:15Z</time>
      </trkpt>
      <trkpt lat="37.228220" lon="-3.316031">
        <ele>1573.3</ele>
        <time>2021-12-30T13:13:35Z</time>
      </trkpt>
      <trkpt lat="37.228119" lon="-3.316103">
        <ele>1570.5</ele>
        <time>2021-12-30T13:17:17Z</time>
      </trkpt>
      <trkpt lat="37.228154" lon="-3.316077">
        <ele>1570.0</ele>
        <time>2021-12-30T13:18:43Z</time>
      </trkpt>
      <trkpt lat="37.228212" lon="-3.316301">
        <ele>1574.8</ele>
        <time>2021-12-30T13:20:17Z</time>
      </trkpt>
      <trkpt lat="37.227959" lon="-3.316280">
        <ele>1580.1</ele>
        <time>2021-12-30T13:21:04Z</time>
      </trkpt>
      <trkpt lat="37.227585" lon="-3.316220">
        <ele>1586.3</ele>
        <time>2021-12-30T13:21:58Z</time>
      </trkpt>
      <trkpt lat="37.227296" lon="-3.316441">
        <ele>1595.9</ele>
        <time>2021-12-30T13:23:02Z</time>
      </trkpt>
      <trkpt lat="37.226876" lon="-3.316279">
        <ele>1600.3</ele>
        <time>2021-12-30T13:23:53Z</time>
      </trkpt>
      <trkpt lat="37.226644" lon="-3.316068">
        <ele>1600.7</ele>
        <time>2021-12-30T13:24:16Z</time>
      </trkpt>
      <trkpt lat="37.226459" lon="-3.315908">
        <ele>1601.2</ele>
        <time>2021-12-30T13:24:35Z</time>
      </trkpt>
      <trkpt lat="37.226535" lon="-3.315423">
        <ele>1603.6</ele>
        <time>2021-12-30T13:25:04Z</time>
      </trkpt>
      <trkpt lat="37.226330" lon="-3.315231">
        <ele>1603.1</ele>
        <time>2021-12-30T13:25:26Z</time>
      </trkpt>
      <trkpt lat="37.226095" lon="-3.314599">
        <ele>1605.5</ele>
        <time>2021-12-30T13:26:08Z</time>
      </trkpt>
      <trkpt lat="37.226139" lon="-3.314264">
        <ele>1606.0</ele>
        <time>2021-12-30T13:26:34Z</time>
      </trkpt>
      <trkpt lat="37.226105" lon="-3.313942">
        <ele>1606.0</ele>
        <time>2021-12-30T13:26:52Z</time>
      </trkpt>
      <trkpt lat="37.225870" lon="-3.313527">
        <ele>1606.5</ele>
        <time>2021-12-30T13:27:28Z</time>
      </trkpt>
      <trkpt lat="37.225836" lon="-3.313334">
        <ele>1607.5</ele>
        <time>2021-12-30T13:27:45Z</time>
      </trkpt>
      <trkpt lat="37.226145" lon="-3.313378">
        <ele>1605.5</ele>
        <time>2021-12-30T13:28:04Z</time>
      </trkpt>
      <trkpt lat="37.226394" lon="-3.313365">
        <ele>1605.1</ele>
        <time>2021-12-30T13:28:20Z</time>
      </trkpt>
      <trkpt lat="37.226640" lon="-3.313358">
        <ele>1605.5</ele>
        <time>2021-12-30T13:28:37Z</time>
      </trkpt>
      <trkpt lat="37.226904" lon="-3.313390">
        <ele>1605.5</ele>
        <time>2021-12-30T13:28:58Z</time>
      </trkpt>
      <trkpt lat="37.227095" lon="-3.313483">
        <ele>1605.5</ele>
        <time>2021-12-30T13:29:13Z</time>
      </trkpt>
      <trkpt lat="37.227285" lon="-3.313466">
        <ele>1606.0</ele>
        <time>2021-12-30T13:29:27Z</time>
      </trkpt>
      <trkpt lat="37.227523" lon="-3.313424">
        <ele>1606.5</ele>
        <time>2021-12-30T13:29:45Z</time>
      </trkpt>
      <trkpt lat="37.227753" lon="-3.313400">
        <ele>1607.5</ele>
        <time>2021-12-30T13:30:01Z</time>
      </trkpt>
      <trkpt lat="37.228011" lon="-3.313359">
        <ele>1607.9</ele>
        <time>2021-12-30T13:30:23Z</time>
      </trkpt>
      <trkpt lat="37.228228" lon="-3.313316">
        <ele>1608.4</ele>
        <time>2021-12-30T13:30:41Z</time>
      </trkpt>
      <trkpt lat="37.228515" lon="-3.313301">
        <ele>1609.9</ele>
        <time>2021-12-30T13:31:01Z</time>
      </trkpt>
      <trkpt lat="37.228738" lon="-3.313349">
        <ele>1609.9</ele>
        <time>2021-12-30T13:31:17Z</time>
      </trkpt>
      <trkpt lat="37.228889" lon="-3.313489">
        <ele>1608.4</ele>
        <time>2021-12-30T13:31:31Z</time>
      </trkpt>
      <trkpt lat="37.229057" lon="-3.313590">
        <ele>1607.0</ele>
        <time>2021-12-30T13:31:44Z</time>
      </trkpt>
      <trkpt lat="37.229243" lon="-3.313617">
        <ele>1605.5</ele>
        <time>2021-12-30T13:31:58Z</time>
      </trkpt>
      <trkpt lat="37.229455" lon="-3.313612">
        <ele>1604.6</ele>
        <time>2021-12-30T13:32:15Z</time>
      </trkpt>
      <trkpt lat="37.229631" lon="-3.313718">
        <ele>1603.1</ele>
        <time>2021-12-30T13:32:29Z</time>
      </trkpt>
      <trkpt lat="37.229805" lon="-3.313783">
        <ele>1602.2</ele>
        <time>2021-12-30T13:32:43Z</time>
      </trkpt>
      <trkpt lat="37.229992" lon="-3.313844">
        <ele>1600.3</ele>
        <time>2021-12-30T13:32:57Z</time>
      </trkpt>
      <trkpt lat="37.230205" lon="-3.313842">
        <ele>1598.8</ele>
        <time>2021-12-30T13:33:15Z</time>
      </trkpt>
      <trkpt lat="37.230403" lon="-3.313842">
        <ele>1597.4</ele>
        <time>2021-12-30T13:33:30Z</time>
      </trkpt>
      <trkpt lat="37.230643" lon="-3.313868">
        <ele>1596.4</ele>
        <time>2021-12-30T13:33:48Z</time>
      </trkpt>
      <trkpt lat="37.230853" lon="-3.313948">
        <ele>1594.5</ele>
        <time>2021-12-30T13:34:02Z</time>
      </trkpt>
      <trkpt lat="37.231007" lon="-3.314134">
        <ele>1592.6</ele>
        <time>2021-12-30T13:34:20Z</time>
      </trkpt>
      <trkpt lat="37.231175" lon="-3.314273">
        <ele>1590.6</ele>
        <time>2021-12-30T13:34:34Z</time>
      </trkpt>
      <trkpt lat="37.231295" lon="-3.314456">
        <ele>1591.1</ele>
        <time>2021-12-30T13:34:48Z</time>
      </trkpt>
      <trkpt lat="37.231407" lon="-3.314697">
        <ele>1591.1</ele>
        <time>2021-12-30T13:35:05Z</time>
      </trkpt>
      <trkpt lat="37.231497" lon="-3.314916">
        <ele>1589.7</ele>
        <time>2021-12-30T13:35:19Z</time>
      </trkpt>
      <trkpt lat="37.231580" lon="-3.315122">
        <ele>1589.2</ele>
        <time>2021-12-30T13:35:33Z</time>
      </trkpt>
      <trkpt lat="37.231627" lon="-3.315361">
        <ele>1587.3</ele>
        <time>2021-12-30T13:35:47Z</time>
      </trkpt>
      <trkpt lat="37.231696" lon="-3.315570">
        <ele>1586.3</ele>
        <time>2021-12-30T13:36:01Z</time>
      </trkpt>
      <trkpt lat="37.231753" lon="-3.315798">
        <ele>1583.9</ele>
        <time>2021-12-30T13:36:15Z</time>
      </trkpt>
      <trkpt lat="37.231841" lon="-3.316001">
        <ele>1581.5</ele>
        <time>2021-12-30T13:36:29Z</time>
      </trkpt>
      <trkpt lat="37.231994" lon="-3.316142">
        <ele>1581.0</ele>
        <time>2021-12-30T13:36:44Z</time>
      </trkpt>
      <trkpt lat="37.232159" lon="-3.316285">
        <ele>1579.6</ele>
        <time>2021-12-30T13:36:59Z</time>
      </trkpt>
      <trkpt lat="37.232314" lon="-3.316441">
        <ele>1578.6</ele>
        <time>2021-12-30T13:37:14Z</time>
      </trkpt>
      <trkpt lat="37.232466" lon="-3.316591">
        <ele>1578.1</ele>
        <time>2021-12-30T13:37:28Z</time>
      </trkpt>
      <trkpt lat="37.232610" lon="-3.316749">
        <ele>1576.7</ele>
        <time>2021-12-30T13:37:42Z</time>
      </trkpt>
      <trkpt lat="37.232758" lon="-3.316918">
        <ele>1575.7</ele>
        <time>2021-12-30T13:37:56Z</time>
      </trkpt>
      <trkpt lat="37.232913" lon="-3.317057">
        <ele>1573.8</ele>
        <time>2021-12-30T13:38:10Z</time>
      </trkpt>
      <trkpt lat="37.233068" lon="-3.317211">
        <ele>1573.8</ele>
        <time>2021-12-30T13:38:25Z</time>
      </trkpt>
      <trkpt lat="37.233201" lon="-3.317389">
        <ele>1572.4</ele>
        <time>2021-12-30T13:38:39Z</time>
      </trkpt>
      <trkpt lat="37.233318" lon="-3.317586">
        <ele>1571.9</ele>
        <time>2021-12-30T13:38:53Z</time>
      </trkpt>
      <trkpt lat="37.233407" lon="-3.317794">
        <ele>1570.5</ele>
        <time>2021-12-30T13:39:07Z</time>
      </trkpt>
      <trkpt lat="37.233491" lon="-3.318014">
        <ele>1568.0</ele>
        <time>2021-12-30T13:39:21Z</time>
      </trkpt>
      <trkpt lat="37.233582" lon="-3.318229">
        <ele>1568.0</ele>
        <time>2021-12-30T13:39:35Z</time>
      </trkpt>
      <trkpt lat="37.233718" lon="-3.318443">
        <ele>1567.1</ele>
        <time>2021-12-30T13:39:51Z</time>
      </trkpt>
      <trkpt lat="37.233814" lon="-3.318648">
        <ele>1565.6</ele>
        <time>2021-12-30T13:40:04Z</time>
      </trkpt>
      <trkpt lat="37.233938" lon="-3.318843">
        <ele>1564.2</ele>
        <time>2021-12-30T13:40:20Z</time>
      </trkpt>
      <trkpt lat="37.234017" lon="-3.319066">
        <ele>1563.2</ele>
        <time>2021-12-30T13:40:33Z</time>
      </trkpt>
      <trkpt lat="37.234112" lon="-3.319297">
        <ele>1561.8</ele>
        <time>2021-12-30T13:40:47Z</time>
      </trkpt>
      <trkpt lat="37.234164" lon="-3.319530">
        <ele>1561.3</ele>
        <time>2021-12-30T13:41:01Z</time>
      </trkpt>
      <trkpt lat="37.234216" lon="-3.319712">
        <ele>1559.9</ele>
        <time>2021-12-30T13:41:46Z</time>
      </trkpt>
      <trkpt lat="37.234219" lon="-3.319942">
        <ele>1558.4</ele>
        <time>2021-12-30T13:42:01Z</time>
      </trkpt>
      <trkpt lat="37.234318" lon="-3.320161">
        <ele>1558.9</ele>
        <time>2021-12-30T13:42:21Z</time>
      </trkpt>
      <trkpt lat="37.234435" lon="-3.320344">
        <ele>1557.5</ele>
        <time>2021-12-30T13:42:35Z</time>
      </trkpt>
      <trkpt lat="37.234513" lon="-3.320557">
        <ele>1556.0</ele>
        <time>2021-12-30T13:42:50Z</time>
      </trkpt>
      <trkpt lat="37.234549" lon="-3.320795">
        <ele>1555.6</ele>
        <time>2021-12-30T13:43:10Z</time>
      </trkpt>
      <trkpt lat="37.234592" lon="-3.321026">
        <ele>1554.6</ele>
        <time>2021-12-30T13:43:25Z</time>
      </trkpt>
      <trkpt lat="37.234644" lon="-3.321289">
        <ele>1552.7</ele>
        <time>2021-12-30T13:43:43Z</time>
      </trkpt>
      <trkpt lat="37.234828" lon="-3.321424">
        <ele>1546.4</ele>
        <time>2021-12-30T13:44:16Z</time>
      </trkpt>
      <trkpt lat="37.235060" lon="-3.321322">
        <ele>1536.8</ele>
        <time>2021-12-30T13:44:53Z</time>
      </trkpt>
      <trkpt lat="37.235311" lon="-3.321346">
        <ele>1530.6</ele>
        <time>2021-12-30T13:45:20Z</time>
      </trkpt>
      <trkpt lat="37.235441" lon="-3.321295">
        <ele>1529.1</ele>
        <time>2021-12-30T13:45:59Z</time>
      </trkpt>
      <trkpt lat="37.235709" lon="-3.321196">
        <ele>1531.0</ele>
        <time>2021-12-30T13:46:35Z</time>
      </trkpt>
      <trkpt lat="37.235883" lon="-3.321180">
        <ele>1532.0</ele>
        <time>2021-12-30T13:46:50Z</time>
      </trkpt>
      <trkpt lat="37.236083" lon="-3.321199">
        <ele>1533.0</ele>
        <time>2021-12-30T13:47:09Z</time>
      </trkpt>
      <trkpt lat="37.236292" lon="-3.321251">
        <ele>1534.9</ele>
        <time>2021-12-30T13:47:26Z</time>
      </trkpt>
      <trkpt lat="37.236500" lon="-3.321418">
        <ele>1537.8</ele>
        <time>2021-12-30T13:47:44Z</time>
      </trkpt>
      <trkpt lat="37.236697" lon="-3.321587">
        <ele>1538.2</ele>
        <time>2021-12-30T13:48:02Z</time>
      </trkpt>
      <trkpt lat="37.236873" lon="-3.321770">
        <ele>1539.2</ele>
        <time>2021-12-30T13:48:19Z</time>
      </trkpt>
      <trkpt lat="37.237068" lon="-3.322004">
        <ele>1542.1</ele>
        <time>2021-12-30T13:48:39Z</time>
      </trkpt>
      <trkpt lat="37.237255" lon="-3.322103">
        <ele>1541.6</ele>
        <time>2021-12-30T13:48:53Z</time>
      </trkpt>
      <trkpt lat="37.237420" lon="-3.322209">
        <ele>1543.5</ele>
        <time>2021-12-30T13:49:07Z</time>
      </trkpt>
      <trkpt lat="37.237587" lon="-3.322294">
        <ele>1542.1</ele>
        <time>2021-12-30T13:49:22Z</time>
      </trkpt>
      <trkpt lat="37.237785" lon="-3.322379">
        <ele>1541.6</ele>
        <time>2021-12-30T13:49:39Z</time>
      </trkpt>
      <trkpt lat="37.238073" lon="-3.322395">
        <ele>1541.6</ele>
        <time>2021-12-30T13:50:01Z</time>
      </trkpt>
      <trkpt lat="37.238137" lon="-3.322472">
        <ele>1540.2</ele>
        <time>2021-12-30T13:51:00Z</time>
      </trkpt>
    </trkseg>
  </trk>
</gpx>
